sensor_id;sensor_type;location;lat;lon;timestamp;P1;durP1;ratioP1;P2;durP2;ratioP2
49041;SDS011;34859;51.608;11.462;2022-08-30T00:00:24;3.38;;;2.72;;
49041;SDS011;34859;51.608;11.462;2022-08-30T00:03:29;5.22;;;3.53;;
49041;SDS011;34859;51.608;11.462;2022-08-30T00:06:17;3.75;;;3.08;;
49041;SDS011;34859;51.608;11.462;2022-08-30T00:09:02;3.80;;;3.28;;
49041;SDS011;34859;51.608;11.462;2022-08-30T00:11:46;4.17;;;3.40;;
49041;SDS011;34859;51.608;11.462;2022-08-30T00:14:30;6.32;;;2.90;;
49041;SDS011;34859;51.608;11.462;2022-08-30T00:17:15;4.63;;;3.45;;
49041;SDS011;34859;51.608;11.462;2022-08-30T00:19:59;4.05;;;3.05;;
49041;SDS011;34859;51.608;11.462;2022-08-30T00:22:43;3.08;;;2.88;;
49041;SDS011;34859;51.608;11.462;2022-08-30T00:25:24;2.90;;;2.70;;
49041;SDS011;34859;51.608;11.462;2022-08-30T00:28:10;3.53;;;3.22;;
49041;SDS011;34859;51.608;11.462;2022-08-30T00:30:54;4.00;;;3.20;;
49041;SDS011;34859;51.608;11.462;2022-08-30T00:33:38;3.90;;;3.60;;
49041;SDS011;34859;51.608;11.462;2022-08-30T00:36:22;4.35;;;3.35;;
49041;SDS011;34859;51.608;11.462;2022-08-30T00:39:06;3.90;;;3.05;;
49041;SDS011;34859;51.608;11.462;2022-08-30T00:41:50;6.25;;;3.92;;
49041;SDS011;34859;51.608;11.462;2022-08-30T00:44:35;5.72;;;3.22;;
49041;SDS011;34859;51.608;11.462;2022-08-30T00:47:19;3.63;;;2.97;;
49041;SDS011;34859;51.608;11.462;2022-08-30T00:50:03;7.78;;;2.85;;
49041;SDS011;34859;51.608;11.462;2022-08-30T00:52:48;4.70;;;3.00;;
49041;SDS011;34859;51.608;11.462;2022-08-30T00:55:35;3.40;;;2.50;;
49041;SDS011;34859;51.608;11.462;2022-08-30T00:58:21;5.23;;;3.10;;
49041;SDS011;34859;51.608;11.462;2022-08-30T01:01:10;3.15;;;2.92;;
49041;SDS011;34859;51.608;11.462;2022-08-30T01:03:54;4.25;;;3.45;;
49041;SDS011;34859;51.608;11.462;2022-08-30T01:06:39;3.65;;;3.00;;
49041;SDS011;34859;51.608;11.462;2022-08-30T01:12:09;4.18;;;2.60;;
49041;SDS011;34859;51.608;11.462;2022-08-30T01:14:54;2.90;;;2.70;;
49041;SDS011;34859;51.608;11.462;2022-08-30T01:17:43;2.97;;;2.65;;
49041;SDS011;34859;51.608;11.462;2022-08-30T01:20:34;3.60;;;2.90;;
49041;SDS011;34859;51.608;11.462;2022-08-30T01:23:24;3.13;;;2.90;;
49041;SDS011;34859;51.608;11.462;2022-08-30T01:26:06;5.20;;;3.03;;
49041;SDS011;34859;51.608;11.462;2022-08-30T01:28:54;3.17;;;2.97;;
49041;SDS011;34859;51.608;11.462;2022-08-30T01:31:42;2.35;;;2.25;;
49041;SDS011;34859;51.608;11.462;2022-08-30T01:34:26;3.37;;;3.17;;
49041;SDS011;34859;51.608;11.462;2022-08-30T01:37:10;3.33;;;3.13;;
49041;SDS011;34859;51.608;11.462;2022-08-30T01:39:54;4.40;;;3.40;;
49041;SDS011;34859;51.608;11.462;2022-08-30T01:42:39;9.32;;;3.20;;
49041;SDS011;34859;51.608;11.462;2022-08-30T01:45:23;3.83;;;3.50;;
49041;SDS011;34859;51.608;11.462;2022-08-30T01:48:08;2.70;;;2.50;;
49041;SDS011;34859;51.608;11.462;2022-08-30T01:50:55;4.53;;;2.90;;
49041;SDS011;34859;51.608;11.462;2022-08-30T01:53:40;3.20;;;3.00;;
49041;SDS011;34859;51.608;11.462;2022-08-30T01:56:26;4.32;;;3.55;;
49041;SDS011;34859;51.608;11.462;2022-08-30T01:59:11;3.00;;;2.80;;
49041;SDS011;34859;51.608;11.462;2022-08-30T02:01:55;4.60;;;3.40;;
49041;SDS011;34859;51.608;11.462;2022-08-30T02:04:40;8.27;;;3.35;;
49041;SDS011;34859;51.608;11.462;2022-08-30T02:07:25;3.80;;;3.17;;
49041;SDS011;34859;51.608;11.462;2022-08-30T02:10:09;3.65;;;3.45;;
49041;SDS011;34859;51.608;11.462;2022-08-30T02:12:53;3.40;;;3.10;;
49041;SDS011;34859;51.608;11.462;2022-08-30T02:15:37;3.30;;;3.10;;
49041;SDS011;34859;51.608;11.462;2022-08-30T02:18:22;3.40;;;3.10;;
49041;SDS011;34859;51.608;11.462;2022-08-30T02:21:08;3.42;;;3.15;;
49041;SDS011;34859;51.608;11.462;2022-08-30T02:23:53;3.00;;;2.78;;
49041;SDS011;34859;51.608;11.462;2022-08-30T02:26:37;4.63;;;3.22;;
49041;SDS011;34859;51.608;11.462;2022-08-30T02:29:22;3.28;;;2.97;;
49041;SDS011;34859;51.608;11.462;2022-08-30T02:32:07;3.60;;;3.40;;
49041;SDS011;34859;51.608;11.462;2022-08-30T02:34:51;3.33;;;3.08;;
49041;SDS011;34859;51.608;11.462;2022-08-30T02:37:35;3.63;;;3.22;;
49041;SDS011;34859;51.608;11.462;2022-08-30T02:40:19;4.50;;;3.33;;
49041;SDS011;34859;51.608;11.462;2022-08-30T02:45:49;3.15;;;2.95;;
49041;SDS011;34859;51.608;11.462;2022-08-30T02:48:33;5.20;;;3.42;;
49041;SDS011;34859;51.608;11.462;2022-08-30T02:51:18;4.25;;;3.22;;
49041;SDS011;34859;51.608;11.462;2022-08-30T02:54:02;4.32;;;3.65;;
49041;SDS011;34859;51.608;11.462;2022-08-30T02:56:46;4.70;;;3.20;;
49041;SDS011;34859;51.608;11.462;2022-08-30T02:59:31;3.95;;;3.30;;
49041;SDS011;34859;51.608;11.462;2022-08-30T03:05:01;3.92;;;3.53;;
49041;SDS011;34859;51.608;11.462;2022-08-30T03:07:45;4.63;;;3.60;;
49041;SDS011;34859;51.608;11.462;2022-08-30T03:10:30;3.80;;;3.37;;
49041;SDS011;34859;51.608;11.462;2022-08-30T03:13:14;3.77;;;3.40;;
49041;SDS011;34859;51.608;11.462;2022-08-30T03:15:59;5.28;;;4.03;;
49041;SDS011;34859;51.608;11.462;2022-08-30T03:18:43;3.65;;;3.42;;
49041;SDS011;34859;51.608;11.462;2022-08-30T03:21:27;4.45;;;3.22;;
49041;SDS011;34859;51.608;11.462;2022-08-30T03:24:11;3.67;;;3.30;;
49041;SDS011;34859;51.608;11.462;2022-08-30T03:26:56;4.60;;;3.17;;
49041;SDS011;34859;51.608;11.462;2022-08-30T03:29:40;4.43;;;3.40;;
49041;SDS011;34859;51.608;11.462;2022-08-30T03:32:25;3.78;;;3.47;;
49041;SDS011;34859;51.608;11.462;2022-08-30T03:35:09;4.20;;;3.30;;
49041;SDS011;34859;51.608;11.462;2022-08-30T03:37:54;6.95;;;3.42;;
49041;SDS011;34859;51.608;11.462;2022-08-30T03:40:38;6.35;;;3.60;;
49041;SDS011;34859;51.608;11.462;2022-08-30T03:43:22;11.05;;;3.75;;
49041;SDS011;34859;51.608;11.462;2022-08-30T03:46:06;3.80;;;3.50;;
49041;SDS011;34859;51.608;11.462;2022-08-30T03:48:50;4.25;;;3.42;;
49041;SDS011;34859;51.608;11.462;2022-08-30T03:51:35;4.13;;;3.33;;
49041;SDS011;34859;51.608;11.462;2022-08-30T03:54:20;3.88;;;3.33;;
49041;SDS011;34859;51.608;11.462;2022-08-30T03:57:04;3.70;;;3.35;;
49041;SDS011;34859;51.608;11.462;2022-08-30T03:59:49;3.25;;;3.00;;
49041;SDS011;34859;51.608;11.462;2022-08-30T04:02:33;4.10;;;3.80;;
49041;SDS011;34859;51.608;11.462;2022-08-30T04:05:17;4.25;;;3.35;;
49041;SDS011;34859;51.608;11.462;2022-08-30T04:08:02;3.83;;;3.50;;
49041;SDS011;34859;51.608;11.462;2022-08-30T04:10:46;6.93;;;3.58;;
49041;SDS011;34859;51.608;11.462;2022-08-30T04:13:31;3.72;;;3.33;;
49041;SDS011;34859;51.608;11.462;2022-08-30T04:16:19;4.22;;;2.90;;
49041;SDS011;34859;51.608;11.462;2022-08-30T04:19:03;3.72;;;3.13;;
49041;SDS011;34859;51.608;11.462;2022-08-30T04:21:47;3.58;;;3.28;;
49041;SDS011;34859;51.608;11.462;2022-08-30T04:24:32;6.25;;;3.72;;
49041;SDS011;34859;51.608;11.462;2022-08-30T04:27:17;4.65;;;3.22;;
49041;SDS011;34859;51.608;11.462;2022-08-30T04:30:03;3.28;;;3.00;;
49041;SDS011;34859;51.608;11.462;2022-08-30T04:32:48;4.30;;;3.33;;
49041;SDS011;34859;51.608;11.462;2022-08-30T04:35:32;4.22;;;3.17;;
49041;SDS011;34859;51.608;11.462;2022-08-30T04:38:16;7.87;;;3.40;;
49041;SDS011;34859;51.608;11.462;2022-08-30T04:41:00;4.45;;;3.55;;
49041;SDS011;34859;51.608;11.462;2022-08-30T04:43:46;3.90;;;3.55;;
49041;SDS011;34859;51.608;11.462;2022-08-30T04:46:34;3.28;;;3.08;;
49041;SDS011;34859;51.608;11.462;2022-08-30T04:49:19;3.80;;;3.50;;
49041;SDS011;34859;51.608;11.462;2022-08-30T04:52:03;4.32;;;3.08;;
49041;SDS011;34859;51.608;11.462;2022-08-30T04:54:45;6.07;;;3.42;;
49041;SDS011;34859;51.608;11.462;2022-08-30T04:57:30;4.70;;;3.20;;
49041;SDS011;34859;51.608;11.462;2022-08-30T05:00:11;6.55;;;3.63;;
49041;SDS011;34859;51.608;11.462;2022-08-30T05:02:56;5.18;;;3.72;;
49041;SDS011;34859;51.608;11.462;2022-08-30T05:05:45;4.13;;;3.70;;
49041;SDS011;34859;51.608;11.462;2022-08-30T05:08:30;3.60;;;3.40;;
49041;SDS011;34859;51.608;11.462;2022-08-30T05:11:14;4.47;;;4.05;;
49041;SDS011;34859;51.608;11.462;2022-08-30T05:16:43;5.35;;;4.65;;
49041;SDS011;34859;51.608;11.462;2022-08-30T05:19:30;4.40;;;4.00;;
49041;SDS011;34859;51.608;11.462;2022-08-30T05:22:16;6.22;;;3.72;;
49041;SDS011;34859;51.608;11.462;2022-08-30T05:25:00;5.47;;;4.13;;
49041;SDS011;34859;51.608;11.462;2022-08-30T05:27:44;14.98;;;10.38;;
49041;SDS011;34859;51.608;11.462;2022-08-30T05:30:30;10.98;;;10.18;;
49041;SDS011;34859;51.608;11.462;2022-08-30T05:33:16;8.68;;;7.72;;
49041;SDS011;34859;51.608;11.462;2022-08-30T05:36:00;9.85;;;7.80;;
49041;SDS011;34859;51.608;11.462;2022-08-30T05:38:44;13.63;;;10.75;;
49041;SDS011;34859;51.608;11.462;2022-08-30T05:41:28;13.18;;;11.23;;
49041;SDS011;34859;51.608;11.462;2022-08-30T05:44:13;14.65;;;12.57;;
49041;SDS011;34859;51.608;11.462;2022-08-30T05:46:57;14.05;;;11.55;;
49041;SDS011;34859;51.608;11.462;2022-08-30T05:49:41;12.43;;;11.32;;
49041;SDS011;34859;51.608;11.462;2022-08-30T05:52:25;13.32;;;12.18;;
49041;SDS011;34859;51.608;11.462;2022-08-30T05:55:09;17.00;;;15.27;;
49041;SDS011;34859;51.608;11.462;2022-08-30T05:57:54;15.52;;;14.18;;
49041;SDS011;34859;51.608;11.462;2022-08-30T06:00:38;16.17;;;14.53;;
49041;SDS011;34859;51.608;11.462;2022-08-30T06:03:22;16.45;;;14.48;;
49041;SDS011;34859;51.608;11.462;2022-08-30T06:06:07;19.20;;;15.82;;
49041;SDS011;34859;51.608;11.462;2022-08-30T06:08:51;18.33;;;16.27;;
49041;SDS011;34859;51.608;11.462;2022-08-30T06:11:36;17.10;;;15.13;;
49041;SDS011;34859;51.608;11.462;2022-08-30T06:17:05;17.13;;;15.43;;
49041;SDS011;34859;51.608;11.462;2022-08-30T06:19:49;19.63;;;16.52;;
49041;SDS011;34859;51.608;11.462;2022-08-30T06:22:33;18.30;;;16.38;;
49041;SDS011;34859;51.608;11.462;2022-08-30T06:25:18;20.63;;;18.42;;
49041;SDS011;34859;51.608;11.462;2022-08-30T06:28:03;37.70;;;18.15;;
49041;SDS011;34859;51.608;11.462;2022-08-30T06:30:48;25.00;;;17.75;;
49041;SDS011;34859;51.608;11.462;2022-08-30T06:33:32;17.95;;;15.60;;
49041;SDS011;34859;51.608;11.462;2022-08-30T06:36:19;24.40;;;18.02;;
49041;SDS011;34859;51.608;11.462;2022-08-30T06:39:06;24.77;;;15.98;;
49041;SDS011;34859;51.608;11.462;2022-08-30T06:41:51;18.48;;;16.50;;
49041;SDS011;34859;51.608;11.462;2022-08-30T06:44:35;17.42;;;15.60;;
49041;SDS011;34859;51.608;11.462;2022-08-30T06:47:19;17.88;;;15.00;;
49041;SDS011;34859;51.608;11.462;2022-08-30T06:50:03;24.90;;;17.30;;
49041;SDS011;34859;51.608;11.462;2022-08-30T06:52:47;17.70;;;15.90;;
49041;SDS011;34859;51.608;11.462;2022-08-30T06:55:31;18.38;;;16.52;;
49041;SDS011;34859;51.608;11.462;2022-08-30T06:58:13;19.23;;;15.75;;
49041;SDS011;34859;51.608;11.462;2022-08-30T07:00:57;18.77;;;16.20;;
49041;SDS011;34859;51.608;11.462;2022-08-30T07:03:42;18.95;;;17.05;;
49041;SDS011;34859;51.608;11.462;2022-08-30T07:06:27;22.60;;;17.55;;
49041;SDS011;34859;51.608;11.462;2022-08-30T07:09:11;21.80;;;17.98;;
49041;SDS011;34859;51.608;11.462;2022-08-30T07:11:55;18.27;;;16.37;;
49041;SDS011;34859;51.608;11.462;2022-08-30T07:14:45;19.42;;;17.55;;
49041;SDS011;34859;51.608;11.462;2022-08-30T07:17:29;22.98;;;17.30;;
49041;SDS011;34859;51.608;11.462;2022-08-30T07:20:32;20.00;;;17.88;;
49041;SDS011;34859;51.608;11.462;2022-08-30T07:23:16;24.58;;;16.50;;
49041;SDS011;34859;51.608;11.462;2022-08-30T07:26:05;18.75;;;16.63;;
49041;SDS011;34859;51.608;11.462;2022-08-30T07:28:50;21.55;;;18.45;;
49041;SDS011;34859;51.608;11.462;2022-08-30T07:31:35;21.65;;;19.05;;
49041;SDS011;34859;51.608;11.462;2022-08-30T07:34:20;23.95;;;18.83;;
49041;SDS011;34859;51.608;11.462;2022-08-30T07:37:04;21.25;;;18.30;;
49041;SDS011;34859;51.608;11.462;2022-08-30T07:39:48;18.63;;;16.65;;
49041;SDS011;34859;51.608;11.462;2022-08-30T07:42:29;21.45;;;18.52;;
49041;SDS011;34859;51.608;11.462;2022-08-30T07:45:14;21.45;;;16.95;;
49041;SDS011;34859;51.608;11.462;2022-08-30T07:47:58;20.63;;;18.60;;
49041;SDS011;34859;51.608;11.462;2022-08-30T07:50:43;23.80;;;19.90;;
49041;SDS011;34859;51.608;11.462;2022-08-30T07:53:28;21.45;;;17.35;;
49041;SDS011;34859;51.608;11.462;2022-08-30T07:56:13;21.23;;;17.88;;
49041;SDS011;34859;51.608;11.462;2022-08-30T08:01:42;20.73;;;16.63;;
49041;SDS011;34859;51.608;11.462;2022-08-30T08:04:26;19.60;;;16.40;;
49041;SDS011;34859;51.608;11.462;2022-08-30T08:07:10;27.38;;;15.05;;
49041;SDS011;34859;51.608;11.462;2022-08-30T08:09:54;18.60;;;14.73;;
49041;SDS011;34859;51.608;11.462;2022-08-30T08:12:39;17.35;;;15.55;;
49041;SDS011;34859;51.608;11.462;2022-08-30T08:15:24;16.13;;;14.25;;
49041;SDS011;34859;51.608;11.462;2022-08-30T08:18:08;16.45;;;14.63;;
49041;SDS011;34859;51.608;11.462;2022-08-30T08:20:53;20.58;;;16.02;;
49041;SDS011;34859;51.608;11.462;2022-08-30T08:23:37;20.80;;;16.40;;
49041;SDS011;34859;51.608;11.462;2022-08-30T08:26:21;27.97;;;18.03;;
49041;SDS011;34859;51.608;11.462;2022-08-30T08:29:06;19.83;;;16.58;;
49041;SDS011;34859;51.608;11.462;2022-08-30T08:31:49;26.08;;;19.20;;
49041;SDS011;34859;51.608;11.462;2022-08-30T08:34:34;28.38;;;20.67;;
49041;SDS011;34859;51.608;11.462;2022-08-30T08:37:19;27.00;;;19.00;;
49041;SDS011;34859;51.608;11.462;2022-08-30T08:42:57;20.42;;;15.90;;
49041;SDS011;34859;51.608;11.462;2022-08-30T08:48:48;17.02;;;15.25;;
49041;SDS011;34859;51.608;11.462;2022-08-30T08:51:35;16.88;;;15.13;;
49041;SDS011;34859;51.608;11.462;2022-08-30T08:54:43;15.63;;;14.02;;
49041;SDS011;34859;51.608;11.462;2022-08-30T08:57:34;17.75;;;15.15;;
49041;SDS011;34859;51.608;11.462;2022-08-30T09:00:20;15.98;;;14.48;;
49041;SDS011;34859;51.608;11.462;2022-08-30T09:03:05;20.02;;;16.85;;
49041;SDS011;34859;51.608;11.462;2022-08-30T09:05:55;17.73;;;15.85;;
49041;SDS011;34859;51.608;11.462;2022-08-30T09:08:41;15.90;;;14.38;;
49041;SDS011;34859;51.608;11.462;2022-08-30T09:11:24;14.50;;;13.20;;
49041;SDS011;34859;51.608;11.462;2022-08-30T09:14:12;14.60;;;13.20;;
49041;SDS011;34859;51.608;11.462;2022-08-30T09:17:10;15.00;;;13.60;;
49041;SDS011;34859;51.608;11.462;2022-08-30T09:19:56;13.40;;;12.20;;
49041;SDS011;34859;51.608;11.462;2022-08-30T09:22:42;13.00;;;11.90;;
49041;SDS011;34859;51.608;11.462;2022-08-30T09:25:28;11.97;;;10.77;;
49041;SDS011;34859;51.608;11.462;2022-08-30T09:28:15;13.85;;;12.60;;
49041;SDS011;34859;51.608;11.462;2022-08-30T09:31:04;12.98;;;11.88;;
49041;SDS011;34859;51.608;11.462;2022-08-30T09:33:55;12.20;;;10.98;;
49041;SDS011;34859;51.608;11.462;2022-08-30T09:36:45;11.23;;;10.38;;
49041;SDS011;34859;51.608;11.462;2022-08-30T09:39:35;12.07;;;10.95;;
49041;SDS011;34859;51.608;11.462;2022-08-30T09:42:23;12.90;;;11.70;;
49041;SDS011;34859;51.608;11.462;2022-08-30T09:45:16;11.10;;;10.20;;
49041;SDS011;34859;51.608;11.462;2022-08-30T09:57:10;10.25;;;9.43;;
49041;SDS011;34859;51.608;11.462;2022-08-30T10:09:13;7.90;;;7.43;;
49041;SDS011;34859;51.608;11.462;2022-08-30T10:15:19;9.02;;;7.22;;
49041;SDS011;34859;51.608;11.462;2022-08-30T10:18:29;7.88;;;7.18;;
49041;SDS011;34859;51.608;11.462;2022-08-30T10:21:38;8.10;;;7.40;;
49041;SDS011;34859;51.608;11.462;2022-08-30T10:25:00;7.20;;;6.80;;
49041;SDS011;34859;51.608;11.462;2022-08-30T10:27:46;7.20;;;6.60;;
49041;SDS011;34859;51.608;11.462;2022-08-30T10:30:41;6.80;;;6.20;;
49041;SDS011;34859;51.608;11.462;2022-08-30T10:33:38;6.75;;;6.18;;
49041;SDS011;34859;51.608;11.462;2022-08-30T10:36:31;6.35;;;5.95;;
49041;SDS011;34859;51.608;11.462;2022-08-30T10:39:27;6.22;;;5.85;;
49041;SDS011;34859;51.608;11.462;2022-08-30T10:42:17;7.03;;;6.25;;
49041;SDS011;34859;51.608;11.462;2022-08-30T10:45:09;7.20;;;6.63;;
49041;SDS011;34859;51.608;11.462;2022-08-30T10:48:16;6.22;;;5.72;;
49041;SDS011;34859;51.608;11.462;2022-08-30T10:51:01;5.95;;;5.40;;
49041;SDS011;34859;51.608;11.462;2022-08-30T10:53:53;5.53;;;5.13;;
49041;SDS011;34859;51.608;11.462;2022-08-30T10:56:42;6.18;;;5.63;;
49041;SDS011;34859;51.608;11.462;2022-08-30T10:59:30;5.30;;;4.90;;
49041;SDS011;34859;51.608;11.462;2022-08-30T11:08:23;6.30;;;4.35;;
49041;SDS011;34859;51.608;11.462;2022-08-30T11:17:28;5.90;;;3.92;;
49041;SDS011;34859;51.608;11.462;2022-08-30T11:23:35;5.43;;;4.95;;
49041;SDS011;34859;51.608;11.462;2022-08-30T11:27:02;4.65;;;4.28;;
49041;SDS011;34859;51.608;11.462;2022-08-30T11:29:43;6.05;;;5.38;;
49041;SDS011;34859;51.608;11.462;2022-08-30T11:32:56;5.72;;;4.82;;
49041;SDS011;34859;51.608;11.462;2022-08-30T11:35:43;3.90;;;3.60;;
49041;SDS011;34859;51.608;11.462;2022-08-30T11:41:28;5.65;;;4.40;;
49041;SDS011;34859;51.608;11.462;2022-08-30T11:44:29;4.32;;;4.03;;
49041;SDS011;34859;51.608;11.462;2022-08-30T11:50:18;3.63;;;2.88;;
49041;SDS011;34859;51.608;11.462;2022-08-30T11:53:22;4.32;;;3.80;;
49041;SDS011;34859;51.608;11.462;2022-08-30T11:59:22;2.90;;;2.75;;
49041;SDS011;34859;51.608;11.462;2022-08-30T12:05:52;4.80;;;4.40;;
49041;SDS011;34859;51.608;11.462;2022-08-30T12:08:41;5.22;;;2.85;;
49041;SDS011;34859;51.608;11.462;2022-08-30T12:14:35;5.20;;;3.78;;
49041;SDS011;34859;51.608;11.462;2022-08-30T12:20:57;2.83;;;2.63;;
49041;SDS011;34859;51.608;11.462;2022-08-30T12:26:36;3.08;;;2.50;;
49041;SDS011;34859;51.608;11.462;2022-08-30T12:29:23;3.83;;;2.80;;
49041;SDS011;34859;51.608;11.462;2022-08-30T12:32:16;2.53;;;2.30;;
49041;SDS011;34859;51.608;11.462;2022-08-30T12:35:02;2.97;;;2.60;;
49041;SDS011;34859;51.608;11.462;2022-08-30T12:37:58;3.30;;;3.08;;
49041;SDS011;34859;51.608;11.462;2022-08-30T12:40:51;6.32;;;2.63;;
49041;SDS011;34859;51.608;11.462;2022-08-30T12:43:38;4.18;;;2.35;;
49041;SDS011;34859;51.608;11.462;2022-08-30T12:46:29;5.07;;;2.22;;
49041;SDS011;34859;51.608;11.462;2022-08-30T12:49:15;5.80;;;3.20;;
49041;SDS011;34859;51.608;11.462;2022-08-30T12:58:09;4.78;;;2.30;;
49041;SDS011;34859;51.608;11.462;2022-08-30T13:01:09;2.65;;;2.53;;
49041;SDS011;34859;51.608;11.462;2022-08-30T13:04:11;3.35;;;2.97;;
49041;SDS011;34859;51.608;11.462;2022-08-30T13:07:09;2.60;;;2.40;;
49041;SDS011;34859;51.608;11.462;2022-08-30T13:10:14;2.53;;;2.33;;
49041;SDS011;34859;51.608;11.462;2022-08-30T13:13:03;4.07;;;2.80;;
49041;SDS011;34859;51.608;11.462;2022-08-30T13:15:49;3.05;;;2.28;;
49041;SDS011;34859;51.608;11.462;2022-08-30T13:18:33;3.58;;;2.58;;
49041;SDS011;34859;51.608;11.462;2022-08-30T13:21:28;5.22;;;2.30;;
49041;SDS011;34859;51.608;11.462;2022-08-30T13:24:16;5.57;;;2.65;;
49041;SDS011;34859;51.608;11.462;2022-08-30T13:27:02;2.07;;;1.87;;
49041;SDS011;34859;51.608;11.462;2022-08-30T13:29:50;3.33;;;1.88;;
49041;SDS011;34859;51.608;11.462;2022-08-30T13:32:35;2.33;;;2.13;;
49041;SDS011;34859;51.608;11.462;2022-08-30T13:35:21;4.40;;;1.90;;
49041;SDS011;34859;51.608;11.462;2022-08-30T13:38:05;2.55;;;2.15;;
49041;SDS011;34859;51.608;11.462;2022-08-30T13:40:49;2.17;;;1.98;;
49041;SDS011;34859;51.608;11.462;2022-08-30T13:43:33;3.80;;;1.80;;
49041;SDS011;34859;51.608;11.462;2022-08-30T13:46:18;2.00;;;1.60;;
49041;SDS011;34859;51.608;11.462;2022-08-30T13:49:05;2.85;;;2.00;;
49041;SDS011;34859;51.608;11.462;2022-08-30T13:51:51;3.83;;;1.67;;
49041;SDS011;34859;51.608;11.462;2022-08-30T13:54:36;5.38;;;2.65;;
49041;SDS011;34859;51.608;11.462;2022-08-30T13:57:18;2.42;;;1.60;;
49041;SDS011;34859;51.608;11.462;2022-08-30T14:00:08;2.42;;;1.60;;
49041;SDS011;34859;51.608;11.462;2022-08-30T14:02:56;3.15;;;2.55;;
49041;SDS011;34859;51.608;11.462;2022-08-30T14:05:42;4.43;;;1.77;;
49041;SDS011;34859;51.608;11.462;2022-08-30T14:08:28;6.03;;;1.80;;
49041;SDS011;34859;51.608;11.462;2022-08-30T14:11:14;1.60;;;1.42;;
49041;SDS011;34859;51.608;11.462;2022-08-30T14:14:00;2.88;;;1.48;;
49041;SDS011;34859;51.608;11.462;2022-08-30T14:19:29;4.55;;;1.58;;
49041;SDS011;34859;51.608;11.462;2022-08-30T14:22:13;4.30;;;1.47;;
49041;SDS011;34859;51.608;11.462;2022-08-30T14:24:58;1.67;;;1.30;;
49041;SDS011;34859;51.608;11.462;2022-08-30T14:27:44;1.80;;;1.27;;
49041;SDS011;34859;51.608;11.462;2022-08-30T14:30:28;3.50;;;1.13;;
49041;SDS011;34859;51.608;11.462;2022-08-30T14:33:12;2.23;;;1.40;;
49041;SDS011;34859;51.608;11.462;2022-08-30T14:35:56;1.50;;;1.40;;
49041;SDS011;34859;51.608;11.462;2022-08-30T14:38:40;2.83;;;1.27;;
49041;SDS011;34859;51.608;11.462;2022-08-30T14:41:24;6.63;;;1.40;;
49041;SDS011;34859;51.608;11.462;2022-08-30T14:44:08;1.65;;;1.10;;
49041;SDS011;34859;51.608;11.462;2022-08-30T14:46:50;1.55;;;1.20;;
49041;SDS011;34859;51.608;11.462;2022-08-30T14:49:34;1.63;;;1.20;;
49041;SDS011;34859;51.608;11.462;2022-08-30T14:52:19;4.18;;;1.30;;
49041;SDS011;34859;51.608;11.462;2022-08-30T14:55:05;3.72;;;1.55;;
49041;SDS011;34859;51.608;11.462;2022-08-30T14:57:51;2.92;;;1.30;;
49041;SDS011;34859;51.608;11.462;2022-08-30T15:00:38;5.73;;;1.17;;
49041;SDS011;34859;51.608;11.462;2022-08-30T15:03:22;1.45;;;1.08;;
49041;SDS011;34859;51.608;11.462;2022-08-30T15:06:06;1.27;;;0.93;;
49041;SDS011;34859;51.608;11.462;2022-08-30T15:08:47;1.48;;;0.93;;
49041;SDS011;34859;51.608;11.462;2022-08-30T15:11:32;2.97;;;1.17;;
49041;SDS011;34859;51.608;11.462;2022-08-30T15:14:17;1.35;;;1.25;;
49041;SDS011;34859;51.608;11.462;2022-08-30T15:17:01;1.90;;;1.30;;
49041;SDS011;34859;51.608;11.462;2022-08-30T15:19:45;1.10;;;0.93;;
49041;SDS011;34859;51.608;11.462;2022-08-30T15:22:29;2.65;;;1.10;;
49041;SDS011;34859;51.608;11.462;2022-08-30T15:25:13;2.80;;;1.20;;
49041;SDS011;34859;51.608;11.462;2022-08-30T15:27:57;1.05;;;0.98;;
49041;SDS011;34859;51.608;11.462;2022-08-30T15:30:38;3.13;;;1.42;;
49041;SDS011;34859;51.608;11.462;2022-08-30T15:33:22;1.98;;;1.23;;
49041;SDS011;34859;51.608;11.462;2022-08-30T15:36:07;2.40;;;1.00;;
49041;SDS011;34859;51.608;11.462;2022-08-30T15:38:52;2.72;;;1.00;;
49041;SDS011;34859;51.608;11.462;2022-08-30T15:41:39;1.23;;;0.93;;
49041;SDS011;34859;51.608;11.462;2022-08-30T15:47:08;3.13;;;1.10;;
49041;SDS011;34859;51.608;11.462;2022-08-30T15:49:53;3.13;;;1.02;;
49041;SDS011;34859;51.608;11.462;2022-08-30T15:52:39;1.15;;;0.80;;
49041;SDS011;34859;51.608;11.462;2022-08-30T15:55:23;1.00;;;0.83;;
49041;SDS011;34859;51.608;11.462;2022-08-30T15:58:07;2.47;;;1.00;;
49041;SDS011;34859;51.608;11.462;2022-08-30T16:00:51;2.35;;;0.90;;
49041;SDS011;34859;51.608;11.462;2022-08-30T16:03:35;1.10;;;1.00;;
49041;SDS011;34859;51.608;11.462;2022-08-30T16:06:24;2.22;;;1.05;;
49041;SDS011;34859;51.608;11.462;2022-08-30T16:09:13;0.90;;;0.90;;
49041;SDS011;34859;51.608;11.462;2022-08-30T16:11:58;2.67;;;0.98;;
49041;SDS011;34859;51.608;11.462;2022-08-30T16:14:43;0.80;;;0.80;;
49041;SDS011;34859;51.608;11.462;2022-08-30T16:17:27;2.05;;;1.17;;
49041;SDS011;34859;51.608;11.462;2022-08-30T16:20:08;2.05;;;1.05;;
49041;SDS011;34859;51.608;11.462;2022-08-30T16:22:53;1.13;;;0.90;;
49041;SDS011;34859;51.608;11.462;2022-08-30T16:25:37;3.03;;;1.20;;
49041;SDS011;34859;51.608;11.462;2022-08-30T16:28:21;1.80;;;1.10;;
49041;SDS011;34859;51.608;11.462;2022-08-30T16:31:03;2.65;;;1.00;;
49041;SDS011;34859;51.608;11.462;2022-08-30T16:33:49;2.65;;;1.20;;
49041;SDS011;34859;51.608;11.462;2022-08-30T16:36:33;3.65;;;1.35;;
49041;SDS011;34859;51.608;11.462;2022-08-30T16:39:18;0.80;;;0.80;;
49041;SDS011;34859;51.608;11.462;2022-08-30T16:42:02;1.10;;;1.00;;
49041;SDS011;34859;51.608;11.462;2022-08-30T16:44:44;1.95;;;1.08;;
49041;SDS011;34859;51.608;11.462;2022-08-30T16:47:28;1.70;;;1.03;;
49041;SDS011;34859;51.608;11.462;2022-08-30T16:50:12;2.27;;;1.00;;
49041;SDS011;34859;51.608;11.462;2022-08-30T16:52:56;5.80;;;1.10;;
49041;SDS011;34859;51.608;11.462;2022-08-30T16:55:40;2.78;;;1.10;;
49041;SDS011;34859;51.608;11.462;2022-08-30T16:58:25;2.43;;;1.07;;
49041;SDS011;34859;51.608;11.462;2022-08-30T17:01:09;2.00;;;1.00;;
49041;SDS011;34859;51.608;11.462;2022-08-30T17:03:53;1.58;;;1.02;;
49041;SDS011;34859;51.608;11.462;2022-08-30T17:06:37;3.57;;;1.17;;
49041;SDS011;34859;51.608;11.462;2022-08-30T17:09:22;1.80;;;1.00;;
49041;SDS011;34859;51.608;11.462;2022-08-30T17:12:06;1.98;;;1.15;;
49041;SDS011;34859;51.608;11.462;2022-08-30T17:14:50;7.10;;;1.48;;
49041;SDS011;34859;51.608;11.462;2022-08-30T17:17:34;1.70;;;0.90;;
49041;SDS011;34859;51.608;11.462;2022-08-30T17:20:19;1.20;;;1.10;;
49041;SDS011;34859;51.608;11.462;2022-08-30T17:23:03;1.10;;;1.10;;
49041;SDS011;34859;51.608;11.462;2022-08-30T17:25:47;1.05;;;0.98;;
49041;SDS011;34859;51.608;11.462;2022-08-30T17:28:32;1.08;;;0.95;;
49041;SDS011;34859;51.608;11.462;2022-08-30T17:31:16;1.85;;;1.05;;
49041;SDS011;34859;51.608;11.462;2022-08-30T17:34:01;1.70;;;1.30;;
49041;SDS011;34859;51.608;11.462;2022-08-30T17:39:28;2.60;;;1.30;;
49041;SDS011;34859;51.608;11.462;2022-08-30T17:42:12;1.92;;;1.30;;
49041;SDS011;34859;51.608;11.462;2022-08-30T17:44:57;2.80;;;1.40;;
49041;SDS011;34859;51.608;11.462;2022-08-30T17:47:44;1.52;;;1.27;;
49041;SDS011;34859;51.608;11.462;2022-08-30T17:50:28;1.98;;;1.40;;
49041;SDS011;34859;51.608;11.462;2022-08-30T17:53:12;2.20;;;1.70;;
49041;SDS011;34859;51.608;11.462;2022-08-30T17:55:56;1.43;;;1.40;;